MET'MAP v2.0
soon released !

Expected late october,
this new version will be
more efficient, smarter,
and hosted on a brand new
server x3 powerfull...
...and still free !


Not compatible ?
Try the mobile version !

LOG IN : | Subscribe | Disclaimer | Who is Orbifly ? |
ICAO code :

TAF - LICR Reggio Calabria - 19 Oct 2019 18:58 UTC - Data Source NOAA   


- Airport Elevation : 96 ft
- IATA code : REG
- No reported NOTAMs.


LICR - Reggio Calabria

Latest METAR recorded : 2015/08/11 07:50 LICR 110750Z VRB04KT CAVOK 30/18 Q1011
TAF COR TAF LICR
Valid from the 19 at 12:00 until the 20 at 12:00 UTC


191259Z 1912/2012 18012KT CAVOK
BECMG 1916/1918 VRB05KT
BECMG 2010/2012 19010KT

Source NOAA


MET'MAP, your aeronautical weather chart ! - Copyright ORBIFLY December 2007

Programming & Development : Alexandra Zaïnal
Co-Developer : Marc-Olivier Méhu
Technical & hardware support : Manuel Goepfert
Concept & Financing : Baudouin d'Aumeries